Nearby METAR Reports

 

KMTN - Baltimore/Martin, Maryland, USA
Distance from station: SSE 8mi, 13km
Updated: Tue, 02-Sep-2014 6:45am EDT
Clear
Clear
 Wind from calm
Wind: Calm
Temperature: 75°F , 24°C
Dew Point: 75°F , 24°C
Humidity: 100%
Barometer: 29.97 inHg , 1014.9 hPa
Clouds: Clear
Visibility: 10 miles , 16 km
2014/09/02 10:45 KMTN 021045Z 00000KT 10SM SKC 24/24 A2997
KDMH - Baltimore/Dwntwn, Maryland, USA
Distance from station: SW 12mi, 19km
Updated: Tue, 02-Sep-2014 6:54am EDT

 
Temperature: 77°F , 25°C
Dew Point: 72°F , 22°C
Humidity: 83%
Barometer: 29.96 inHg , 1014.6 hPa
2014/09/02 10:54 KDMH 021054Z AUTO 25/22 A2996 RMK AO1 SLP145 T02500217
 
KBWI - Balto/Wash Intl, Maryland, USA
Distance from station: SSW 20mi, 33km
Updated: Tue, 02-Sep-2014 6:54am EDT
Partly cloudy
Partly cloudy
 Wind from calm
Wind: Calm
Temperature: 73°F , 23°C
Dew Point: 72°F , 22°C
Humidity: 94%
Barometer: 29.96 inHg , 1014.6 hPa
Clouds: Partly cloudy
Visibility: 10 miles , 16 km
Cloud details: Few Clouds 13000 ft
Partly cloudy 17000 ft
Partly cloudy 25000 ft
2014/09/02 10:54 KBWI 021054Z 00000KT 10SM FEW130 SCT170 SCT250 23/22 A2996 RMK AO2 SLP143 T02280222
KDMW - Carroll Cnty, Maryland, USA
Distance from station: WNW 30mi, 48km
Updated: Tue, 02-Sep-2014 7:10am EDT
Clear
Clear
 Wind from WSW
Wind: WSW 5 mph , 7 km/h
Temperature: 73°F , 23°C
Dew Point: 70°F , 21°C
Humidity: 89%
Barometer: 29.99 inHg , 1015.6 hPa
Clouds: Clear
Visibility: 10 miles , 16 km
2014/09/02 11:10 KDMW 021110Z AUTO 24004KT 10SM CLR 23/21 A2999 RMK AO2
 
KNAK - Annapolis/Naval, Maryland, USA
Distance from station: S 30mi, 48km
Updated: Tue, 02-Sep-2014 6:54am EDT
Clear
Clear
 Wind from calm
Wind: Calm
Temperature: 75°F , 24°C
Dew Point: 72°F , 22°C
Humidity: 89%
Barometer: 29.96 inHg , 1014.6 hPa
Clouds: Clear
Visibility: 10 miles , 16 km
2014/09/02 10:54 KNAK 021054Z AUTO 00000KT 10SM CLR 24/22 A2996 RMK AO2 SLP146 T02440217 $
KW29 - Stevensville, Maryland, USA
Distance from station: SSE 31mi, 50km
Updated: Tue, 02-Sep-2014 7:09am EDT

 Wind from SW
Wind: SW 5 mph , 7 km/h
Temperature: 77°F , 25°C
Dew Point: 72°F , 22°C
Humidity: 83%
Barometer: 29.97 inHg , 1014.9 hPa
Visibility: 10 miles , 16 km
2014/09/02 11:09 KW29 021109Z AUTO 22004KT 10SM 25/22 A2997 RMK AO1
 
KCGS - College Park, Maryland, USA
Distance from station: SW 38mi, 61km
Updated: Tue, 02-Sep-2014 7:05am EDT
Clear
Clear
 Wind from calm
Wind: Calm
Temperature: 72°F , 22°C
Dew Point: 72°F , 22°C
Humidity: 100%
Barometer: 29.97 inHg , 1014.9 hPa
Clouds: Clear
Visibility: 10 miles , 16 km
2014/09/02 11:05 KCGS 021105Z AUTO 00000KT 10SM CLR 22/22 A2997 RMK AO1
KGAI - Gaithersburg, Maryland, USA
Distance from station: WSW 40mi, 65km
Updated: Tue, 02-Sep-2014 7:15am EDT
Clear
Clear
 Wind from calm
Wind: Calm
Temperature: 70°F , 21°C
Dew Point: 70°F , 21°C
Humidity: 100%
Barometer: 30.02 inHg , 1016.6 hPa
Clouds: Clear
Visibility: 5 miles , 8 km
2014/09/02 11:15 KGAI 021115Z AUTO 00000KT 5SM CLR 21/21 A3002 RMK AO1
 
KTHV - York, Pennsylvania, USA
Distance from station: NNW 40mi, 65km
Updated: Tue, 02-Sep-2014 6:53am EDT
Clear
Clear
 Wind from calm
Wind: Calm
Temperature: 70°F , 21°C
Dew Point: 66°F , 19°C
Humidity: 88%
Barometer: 29.96 inHg , 1014.6 hPa
Clouds: Clear
Visibility: 10 miles , 16 km
2014/09/02 10:53 KTHV 021053Z AUTO 00000KT 10SM CLR 21/19 A2996 RMK AO2 SLP142 T02060194
KFDK - Frederick, Maryland, USA
Distance from station: W 47mi, 75km
Updated: Tue, 02-Sep-2014 6:45am EDT
Clear
Clear
 Wind from varies
Wind: varies 3 mph , 6 km/h
Clouds: Clear
Visibility: 10 miles , 16 km
2014/09/02 10:45 KFDK 021045Z VRB03KT 10SM SKC MM/MM A2999
 
KESN - Easton/Newnam, Maryland, USA
Distance from station: SSE 48mi, 78km
Updated: Tue, 02-Sep-2014 6:50am EDT
Clear
Clear
 Wind from calm
Wind: Calm
Temperature: 75°F , 24°C
Dew Point: 75°F , 24°C
Humidity: 100%
Barometer: 30.00 inHg , 1015.9 hPa
Clouds: Clear
Visibility: 10 miles , 16 km
2014/09/02 10:50 KESN 021050Z 00000KT 10SM SKC 24/24 A3000
KDCA - Washington/Natl, Washington D.c., USA
Distance from station: SW 49mi, 79km
Updated: Tue, 02-Sep-2014 6:52am EDT
Partly cloudy
Partly cloudy
 Wind from SSW
Wind: SSW 5 mph , 7 km/h
Temperature: 79°F , 26°C
Dew Point: 70°F , 21°C
Humidity: 74%
Barometer: 29.97 inHg , 1014.9 hPa
Clouds: Partly cloudy
Visibility: 10 miles , 16 km
Cloud details: Few Clouds 10000 ft
Partly cloudy 25000 ft
2014/09/02 10:52 KDCA 021052Z 21004KT 10SM FEW100 SCT250 26/21 A2997 RMK AO2 SLP150 T02560211
 
KLNS - Lancaster, Pennsylvania, USA
Distance from station: N 49mi, 79km
Updated: Tue, 02-Sep-2014 7:03am EDT
Mist, Overcast
Mist, Overcast
 Wind from calm
Wind: Calm
Temperature: 70°F , 21°C
Dew Point: 70°F , 21°C
Humidity: 100%
Barometer: 29.95 inHg , 1014.2 hPa
Summary: Mist
Clouds: Overcast
Visibility: 3/4 mile , 5 km
Cloud details: Overcast 300 ft
2014/09/02 11:03 KLNS 021103Z 00000KT 3/4SM BR VV003 21/21 A2995 RMK AO2 T02110211 $
KILG - Wilmington, Delaware, USA
Distance from station: ENE 50mi, 81km
Updated: Tue, 02-Sep-2014 6:51am EDT
Clear
Clear
 Wind from WSW
Wind: WSW 5 mph , 7 km/h
Temperature: 73°F , 23°C
Dew Point: 73°F , 23°C
Humidity: 100%
Barometer: 29.96 inHg , 1014.6 hPa
Clouds: Clear
Visibility: 10 miles , 16 km
2014/09/02 10:51 KILG 021051Z AUTO 24004KT 10SM CLR 23/23 A2996 RMK AO2 SLP144 T02330228 TSNO $